sensor_id;sensor_type;location;lat;lon;timestamp;temperature;humidity
10062;DHT22;5070;52.382;5.270;2023-04-01T00:00:50;18.20;89.00
10062;DHT22;5070;52.382;5.270;2023-04-01T00:03:21;18.20;88.90
10062;DHT22;5070;52.382;5.270;2023-04-01T00:05:50;18.20;88.80
10062;DHT22;5070;52.382;5.270;2023-04-01T00:08:18;18.20;88.80
10062;DHT22;5070;52.382;5.270;2023-04-01T00:10:46;18.20;88.80
10062;DHT22;5070;52.382;5.270;2023-04-01T00:13:14;18.20;88.80
10062;DHT22;5070;52.382;5.270;2023-04-01T00:15:43;18.20;88.70
10062;DHT22;5070;52.382;5.270;2023-04-01T00:18:11;18.20;88.70
10062;DHT22;5070;52.382;5.270;2023-04-01T00:20:45;18.20;88.70
10062;DHT22;5070;52.382;5.270;2023-04-01T00:23:13;18.20;88.70
10062;DHT22;5070;52.382;5.270;2023-04-01T00:25:42;18.20;88.70
10062;DHT22;5070;52.382;5.270;2023-04-01T00:28:11;18.20;88.70
10062;DHT22;5070;52.382;5.270;2023-04-01T00:30:39;18.10;88.60
10062;DHT22;5070;52.382;5.270;2023-04-01T00:33:08;18.10;88.60
10062;DHT22;5070;52.382;5.270;2023-04-01T00:35:36;18.10;88.50
10062;DHT22;5070;52.382;5.270;2023-04-01T00:38:05;18.10;88.50
10062;DHT22;5070;52.382;5.270;2023-04-01T00:40:35;18.10;88.50
10062;DHT22;5070;52.382;5.270;2023-04-01T00:43:10;18.10;88.40
10062;DHT22;5070;52.382;5.270;2023-04-01T00:45:40;18.10;88.40
10062;DHT22;5070;52.382;5.270;2023-04-01T00:48:11;18.10;88.40
10062;DHT22;5070;52.382;5.270;2023-04-01T00:50:44;18.10;88.30
10062;DHT22;5070;52.382;5.270;2023-04-01T00:53:16;18.10;88.30
10062;DHT22;5070;52.382;5.270;2023-04-01T00:55:50;18.10;88.30
10062;DHT22;5070;52.382;5.270;2023-04-01T00:58:21;18.10;88.30
10062;DHT22;5070;52.382;5.270;2023-04-01T01:00:52;18.10;88.20
10062;DHT22;5070;52.382;5.270;2023-04-01T01:03:21;18.10;88.20
10062;DHT22;5070;52.382;5.270;2023-04-01T01:05:59;18.10;88.20
10062;DHT22;5070;52.382;5.270;2023-04-01T01:08:44;18.10;88.20
10062;DHT22;5070;52.382;5.270;2023-04-01T01:11:20;18.00;88.10
10062;DHT22;5070;52.382;5.270;2023-04-01T01:13:56;18.00;88.10
10062;DHT22;5070;52.382;5.270;2023-04-01T01:16:29;18.00;88.10
10062;DHT22;5070;52.382;5.270;2023-04-01T01:19:04;18.00;88.10
10062;DHT22;5070;52.382;5.270;2023-04-01T01:21:49;18.00;88.10
10062;DHT22;5070;52.382;5.270;2023-04-01T01:24:40;18.00;88.00
10062;DHT22;5070;52.382;5.270;2023-04-01T01:27:11;18.00;87.90
10062;DHT22;5070;52.382;5.270;2023-04-01T01:33:04;18.00;88.00
10062;DHT22;5070;52.382;5.270;2023-04-01T01:35:38;18.00;87.90
10062;DHT22;5070;52.382;5.270;2023-04-01T01:38:15;18.00;87.90
10062;DHT22;5070;52.382;5.270;2023-04-01T01:40:51;18.00;87.90
10062;DHT22;5070;52.382;5.270;2023-04-01T01:43:24;18.00;87.90
10062;DHT22;5070;52.382;5.270;2023-04-01T01:45:55;18.00;87.90
10062;DHT22;5070;52.382;5.270;2023-04-01T01:48:25;18.00;87.90
10062;DHT22;5070;52.382;5.270;2023-04-01T01:50:55;18.00;87.80
10062;DHT22;5070;52.382;5.270;2023-04-01T01:53:24;18.00;87.80
10062;DHT22;5070;52.382;5.270;2023-04-01T01:55:52;17.90;87.80
10062;DHT22;5070;52.382;5.270;2023-04-01T01:58:23;17.90;87.80
10062;DHT22;5070;52.382;5.270;2023-04-01T02:00:55;17.90;87.80
10062;DHT22;5070;52.382;5.270;2023-04-01T02:03:27;17.90;87.80
10062;DHT22;5070;52.382;5.270;2023-04-01T02:05:59;17.90;87.80
10062;DHT22;5070;52.382;5.270;2023-04-01T02:08:31;17.90;87.70
10062;DHT22;5070;52.382;5.270;2023-04-01T02:11:03;17.90;87.80
10062;DHT22;5070;52.382;5.270;2023-04-01T02:13:40;17.90;87.70
10062;DHT22;5070;52.382;5.270;2023-04-01T02:16:12;17.90;87.60
10062;DHT22;5070;52.382;5.270;2023-04-01T02:18:42;17.90;88.40
10062;DHT22;5070;52.382;5.270;2023-04-01T02:21:13;17.90;87.60
10062;DHT22;5070;52.382;5.270;2023-04-01T02:23:42;17.90;87.60
10062;DHT22;5070;52.382;5.270;2023-04-01T02:26:12;17.90;87.60
10062;DHT22;5070;52.382;5.270;2023-04-01T02:28:42;17.90;87.60
10062;DHT22;5070;52.382;5.270;2023-04-01T02:31:13;17.90;87.60
10062;DHT22;5070;52.382;5.270;2023-04-01T02:33:42;17.90;87.60
10062;DHT22;5070;52.382;5.270;2023-04-01T02:36:13;17.90;87.60
10062;DHT22;5070;52.382;5.270;2023-04-01T02:38:44;17.90;87.50
10062;DHT22;5070;52.382;5.270;2023-04-01T02:41:13;17.90;87.50
10062;DHT22;5070;52.382;5.270;2023-04-01T02:43:41;17.90;87.60
10062;DHT22;5070;52.382;5.270;2023-04-01T02:46:11;17.90;87.60
10062;DHT22;5070;52.382;5.270;2023-04-01T02:48:39;17.90;87.50
10062;DHT22;5070;52.382;5.270;2023-04-01T02:51:08;17.80;87.40
10062;DHT22;5070;52.382;5.270;2023-04-01T02:53:37;17.80;87.40
10062;DHT22;5070;52.382;5.270;2023-04-01T02:56:06;17.80;87.40
10062;DHT22;5070;52.382;5.270;2023-04-01T02:58:34;17.80;87.40
10062;DHT22;5070;52.382;5.270;2023-04-01T03:01:02;17.80;87.40
10062;DHT22;5070;52.382;5.270;2023-04-01T03:03:30;17.80;87.40
10062;DHT22;5070;52.382;5.270;2023-04-01T03:06:04;17.80;87.40
10062;DHT22;5070;52.382;5.270;2023-04-01T03:08:33;17.80;87.40
10062;DHT22;5070;52.382;5.270;2023-04-01T03:11:03;17.80;87.30
10062;DHT22;5070;52.382;5.270;2023-04-01T03:13:34;17.80;87.40
10062;DHT22;5070;52.382;5.270;2023-04-01T03:16:03;17.80;87.30
10062;DHT22;5070;52.382;5.270;2023-04-01T03:18:31;17.80;87.30
10062;DHT22;5070;52.382;5.270;2023-04-01T03:21:16;17.80;87.30
10062;DHT22;5070;52.382;5.270;2023-04-01T03:23:44;17.80;87.30
10062;DHT22;5070;52.382;5.270;2023-04-01T03:26:14;17.80;87.30
10062;DHT22;5070;52.382;5.270;2023-04-01T03:28:43;17.80;87.30
10062;DHT22;5070;52.382;5.270;2023-04-01T03:31:11;17.80;87.30
10062;DHT22;5070;52.382;5.270;2023-04-01T03:33:46;17.80;87.30
10062;DHT22;5070;52.382;5.270;2023-04-01T03:36:14;17.80;87.30
10062;DHT22;5070;52.382;5.270;2023-04-01T03:38:43;17.80;87.30
10062;DHT22;5070;52.382;5.270;2023-04-01T03:41:17;17.80;87.20
10062;DHT22;5070;52.382;5.270;2023-04-01T03:43:45;17.80;87.20
10062;DHT22;5070;52.382;5.270;2023-04-01T03:46:17;17.80;87.20
10062;DHT22;5070;52.382;5.270;2023-04-01T03:48:46;17.80;87.20
10062;DHT22;5070;52.382;5.270;2023-04-01T03:51:17;17.80;87.20
10062;DHT22;5070;52.382;5.270;2023-04-01T03:53:45;17.70;87.20
10062;DHT22;5070;52.382;5.270;2023-04-01T03:56:13;17.70;87.20
10062;DHT22;5070;52.382;5.270;2023-04-01T03:58:43;17.70;87.20
10062;DHT22;5070;52.382;5.270;2023-04-01T04:01:17;17.70;87.20
10062;DHT22;5070;52.382;5.270;2023-04-01T04:03:46;17.70;87.20
10062;DHT22;5070;52.382;5.270;2023-04-01T04:06:18;17.70;87.10
10062;DHT22;5070;52.382;5.270;2023-04-01T04:08:47;17.70;87.10
10062;DHT22;5070;52.382;5.270;2023-04-01T04:11:16;17.70;87.20
10062;DHT22;5070;52.382;5.270;2023-04-01T04:13:46;17.70;87.20
10062;DHT22;5070;52.382;5.270;2023-04-01T04:16:16;17.70;87.10
10062;DHT22;5070;52.382;5.270;2023-04-01T04:18:50;17.70;87.20
10062;DHT22;5070;52.382;5.270;2023-04-01T04:21:18;17.70;87.20
10062;DHT22;5070;52.382;5.270;2023-04-01T04:23:46;17.70;87.10
10062;DHT22;5070;52.382;5.270;2023-04-01T04:26:16;17.70;87.20
10062;DHT22;5070;52.382;5.270;2023-04-01T04:28:58;17.70;87.20
10062;DHT22;5070;52.382;5.270;2023-04-01T04:31:26;17.70;87.20
10062;DHT22;5070;52.382;5.270;2023-04-01T04:33:59;17.70;87.20
10062;DHT22;5070;52.382;5.270;2023-04-01T04:36:30;17.70;87.10
10062;DHT22;5070;52.382;5.270;2023-04-01T04:38:58;17.70;87.10
10062;DHT22;5070;52.382;5.270;2023-04-01T04:41:29;17.70;87.30
10062;DHT22;5070;52.382;5.270;2023-04-01T04:43:58;17.70;87.00
10062;DHT22;5070;52.382;5.270;2023-04-01T04:46:26;17.70;87.10
10062;DHT22;5070;52.382;5.270;2023-04-01T04:49:02;17.70;87.30
10062;DHT22;5070;52.382;5.270;2023-04-01T04:51:30;17.70;87.60
10062;DHT22;5070;52.382;5.270;2023-04-01T04:54:00;17.70;87.70
10062;DHT22;5070;52.382;5.270;2023-04-01T04:56:41;17.70;87.60
10062;DHT22;5070;52.382;5.270;2023-04-01T04:59:11;17.70;87.90
10062;DHT22;5070;52.382;5.270;2023-04-01T05:01:46;17.70;88.00
10062;DHT22;5070;52.382;5.270;2023-04-01T05:04:14;17.70;88.10
10062;DHT22;5070;52.382;5.270;2023-04-01T05:06:43;17.70;88.10
10062;DHT22;5070;52.382;5.270;2023-04-01T05:09:11;17.70;88.20
10062;DHT22;5070;52.382;5.270;2023-04-01T05:11:39;17.70;88.20
10062;DHT22;5070;52.382;5.270;2023-04-01T05:14:13;17.70;88.20
10062;DHT22;5070;52.382;5.270;2023-04-01T05:16:45;17.70;88.10
10062;DHT22;5070;52.382;5.270;2023-04-01T05:19:13;17.70;88.10
10062;DHT22;5070;52.382;5.270;2023-04-01T05:21:42;17.70;88.10
10062;DHT22;5070;52.382;5.270;2023-04-01T05:24:10;17.70;88.30
10062;DHT22;5070;52.382;5.270;2023-04-01T05:26:39;17.70;88.40
10062;DHT22;5070;52.382;5.270;2023-04-01T05:29:07;17.70;88.70
10062;DHT22;5070;52.382;5.270;2023-04-01T05:31:37;17.70;88.40
10062;DHT22;5070;52.382;5.270;2023-04-01T05:34:07;17.70;88.60
10062;DHT22;5070;52.382;5.270;2023-04-01T05:36:35;17.70;88.40
10062;DHT22;5070;52.382;5.270;2023-04-01T05:39:03;17.70;88.40
10062;DHT22;5070;52.382;5.270;2023-04-01T05:41:31;17.70;88.40
10062;DHT22;5070;52.382;5.270;2023-04-01T05:44:02;17.70;88.60
10062;DHT22;5070;52.382;5.270;2023-04-01T05:46:40;17.70;88.80
10062;DHT22;5070;52.382;5.270;2023-04-01T05:49:18;17.70;88.70
10062;DHT22;5070;52.382;5.270;2023-04-01T05:51:48;17.70;89.10
10062;DHT22;5070;52.382;5.270;2023-04-01T05:54:18;17.70;89.50
10062;DHT22;5070;52.382;5.270;2023-04-01T05:56:46;17.70;89.90
10062;DHT22;5070;52.382;5.270;2023-04-01T05:59:15;17.70;89.90
10062;DHT22;5070;52.382;5.270;2023-04-01T06:01:44;17.80;89.80
10062;DHT22;5070;52.382;5.270;2023-04-01T06:04:14;17.80;89.90
10062;DHT22;5070;52.382;5.270;2023-04-01T06:06:44;17.80;90.00
10062;DHT22;5070;52.382;5.270;2023-04-01T06:09:15;17.80;89.80
10062;DHT22;5070;52.382;5.270;2023-04-01T06:12:08;17.80;89.80
10062;DHT22;5070;52.382;5.270;2023-04-01T06:15:06;17.90;90.00
10062;DHT22;5070;52.382;5.270;2023-04-01T06:17:52;17.90;90.30
10062;DHT22;5070;52.382;5.270;2023-04-01T06:20:34;17.90;90.10
10062;DHT22;5070;52.382;5.270;2023-04-01T06:26:15;17.90;90.50
10062;DHT22;5070;52.382;5.270;2023-04-01T06:29:22;17.90;90.70
10062;DHT22;5070;52.382;5.270;2023-04-01T06:32:16;18.00;90.60
10062;DHT22;5070;52.382;5.270;2023-04-01T06:35:15;18.00;90.70
10062;DHT22;5070;52.382;5.270;2023-04-01T06:38:04;18.00;90.90
10062;DHT22;5070;52.382;5.270;2023-04-01T06:40:54;18.00;91.00
10062;DHT22;5070;52.382;5.270;2023-04-01T06:43:29;18.00;90.90
10062;DHT22;5070;52.382;5.270;2023-04-01T06:46:23;18.00;90.70
10062;DHT22;5070;52.382;5.270;2023-04-01T06:49:25;18.00;90.80
10062;DHT22;5070;52.382;5.270;2023-04-01T06:52:38;18.00;90.90
10062;DHT22;5070;52.382;5.270;2023-04-01T06:55:46;18.00;90.80
10062;DHT22;5070;52.382;5.270;2023-04-01T06:58:20;18.00;91.00
10062;DHT22;5070;52.382;5.270;2023-04-01T07:00:51;18.00;91.00
10062;DHT22;5070;52.382;5.270;2023-04-01T07:03:26;18.00;91.00
10062;DHT22;5070;52.382;5.270;2023-04-01T07:05:59;18.00;91.10
10062;DHT22;5070;52.382;5.270;2023-04-01T07:08:35;18.10;91.00
10062;DHT22;5070;52.382;5.270;2023-04-01T07:11:09;18.10;91.10
10062;DHT22;5070;52.382;5.270;2023-04-01T07:14:00;18.10;91.20
10062;DHT22;5070;52.382;5.270;2023-04-01T07:16:31;18.10;91.10
10062;DHT22;5070;52.382;5.270;2023-04-01T07:19:04;18.10;91.10
10062;DHT22;5070;52.382;5.270;2023-04-01T07:21:53;18.10;91.10
10062;DHT22;5070;52.382;5.270;2023-04-01T07:24:35;18.10;91.00
10062;DHT22;5070;52.382;5.270;2023-04-01T07:27:10;18.10;91.00
10062;DHT22;5070;52.382;5.270;2023-04-01T07:29:40;18.10;91.10
10062;DHT22;5070;52.382;5.270;2023-04-01T07:32:21;18.10;90.80
10062;DHT22;5070;52.382;5.270;2023-04-01T07:35:09;18.10;90.90
10062;DHT22;5070;52.382;5.270;2023-04-01T07:37:49;18.10;90.70
10062;DHT22;5070;52.382;5.270;2023-04-01T07:40:30;18.10;90.60
10062;DHT22;5070;52.382;5.270;2023-04-01T07:43:15;18.10;90.60
10062;DHT22;5070;52.382;5.270;2023-04-01T07:45:59;18.10;90.50
10062;DHT22;5070;52.382;5.270;2023-04-01T07:48:37;18.10;90.30
10062;DHT22;5070;52.382;5.270;2023-04-01T07:51:09;18.10;90.30
10062;DHT22;5070;52.382;5.270;2023-04-01T07:53:46;18.10;90.30
10062;DHT22;5070;52.382;5.270;2023-04-01T07:56:20;18.10;90.00
10062;DHT22;5070;52.382;5.270;2023-04-01T07:58:57;18.10;90.00
10062;DHT22;5070;52.382;5.270;2023-04-01T08:01:57;18.10;90.00
10062;DHT22;5070;52.382;5.270;2023-04-01T08:04:40;18.10;90.00
10062;DHT22;5070;52.382;5.270;2023-04-01T08:07:14;18.10;89.90
10062;DHT22;5070;52.382;5.270;2023-04-01T08:10:07;18.10;89.80
10062;DHT22;5070;52.382;5.270;2023-04-01T08:13:02;18.20;89.70
10062;DHT22;5070;52.382;5.270;2023-04-01T08:16:12;18.10;89.60
10062;DHT22;5070;52.382;5.270;2023-04-01T08:18:54;18.10;89.70
10062;DHT22;5070;52.382;5.270;2023-04-01T08:21:28;18.10;89.70
10062;DHT22;5070;52.382;5.270;2023-04-01T08:23:58;18.10;89.50
10062;DHT22;5070;52.382;5.270;2023-04-01T08:26:36;18.10;89.50
10062;DHT22;5070;52.382;5.270;2023-04-01T08:29:13;18.10;89.30
10062;DHT22;5070;52.382;5.270;2023-04-01T08:31:48;18.10;89.40
10062;DHT22;5070;52.382;5.270;2023-04-01T08:34:21;18.10;89.30
10062;DHT22;5070;52.382;5.270;2023-04-01T08:36:53;18.10;89.30
10062;DHT22;5070;52.382;5.270;2023-04-01T08:39:29;18.10;89.30
10062;DHT22;5070;52.382;5.270;2023-04-01T08:42:13;18.10;89.20
10062;DHT22;5070;52.382;5.270;2023-04-01T08:45:30;18.10;89.10
10062;DHT22;5070;52.382;5.270;2023-04-01T08:48:28;18.10;89.20
10062;DHT22;5070;52.382;5.270;2023-04-01T08:54:16;18.10;89.00
10062;DHT22;5070;52.382;5.270;2023-04-01T08:56:54;18.10;89.00
10062;DHT22;5070;52.382;5.270;2023-04-01T08:59:41;18.10;89.00
10062;DHT22;5070;52.382;5.270;2023-04-01T09:06:04;18.10;89.10
10062;DHT22;5070;52.382;5.270;2023-04-01T09:08:47;18.10;89.60
10062;DHT22;5070;52.382;5.270;2023-04-01T09:11:27;18.10;89.70
10062;DHT22;5070;52.382;5.270;2023-04-01T09:14:35;18.10;89.90
10062;DHT22;5070;52.382;5.270;2023-04-01T09:17:38;18.10;90.00
10062;DHT22;5070;52.382;5.270;2023-04-01T09:20:24;18.10;90.10
10062;DHT22;5070;52.382;5.270;2023-04-01T09:23:15;18.10;90.10
10062;DHT22;5070;52.382;5.270;2023-04-01T09:25:57;18.10;90.10
10062;DHT22;5070;52.382;5.270;2023-04-01T09:28:28;18.10;90.20
10062;DHT22;5070;52.382;5.270;2023-04-01T09:31:17;18.10;90.10
10062;DHT22;5070;52.382;5.270;2023-04-01T09:34:36;18.10;90.20
10062;DHT22;5070;52.382;5.270;2023-04-01T09:37:18;18.10;90.10
10062;DHT22;5070;52.382;5.270;2023-04-01T09:46:23;18.10;90.10
10062;DHT22;5070;52.382;5.270;2023-04-01T09:49:36;18.10;90.00
10062;DHT22;5070;52.382;5.270;2023-04-01T09:52:17;18.10;90.10
10062;DHT22;5070;52.382;5.270;2023-04-01T09:55:02;18.10;90.00
10062;DHT22;5070;52.382;5.270;2023-04-01T10:01:34;18.10;90.20
10062;DHT22;5070;52.382;5.270;2023-04-01T10:04:41;18.10;90.20
10062;DHT22;5070;52.382;5.270;2023-04-01T10:07:39;18.10;90.10
10062;DHT22;5070;52.382;5.270;2023-04-01T10:10:35;18.10;90.10
10062;DHT22;5070;52.382;5.270;2023-04-01T10:13:31;18.10;90.10
10062;DHT22;5070;52.382;5.270;2023-04-01T10:19:35;18.10;90.10
10062;DHT22;5070;52.382;5.270;2023-04-01T10:22:22;18.10;90.00
10062;DHT22;5070;52.382;5.270;2023-04-01T10:28:32;18.10;90.00
10062;DHT22;5070;52.382;5.270;2023-04-01T10:34:51;18.10;89.70
10062;DHT22;5070;52.382;5.270;2023-04-01T10:37:40;18.10;89.60
10062;DHT22;5070;52.382;5.270;2023-04-01T10:47:26;18.20;90.50
10062;DHT22;5070;52.382;5.270;2023-04-01T10:50:18;18.20;90.60
10062;DHT22;5070;52.382;5.270;2023-04-01T10:56:40;18.20;90.60
10062;DHT22;5070;52.382;5.270;2023-04-01T10:59:53;18.20;90.40
10062;DHT22;5070;52.382;5.270;2023-04-01T11:03:18;18.20;90.40
10062;DHT22;5070;52.382;5.270;2023-04-01T11:06:37;18.20;90.20
10062;DHT22;5070;52.382;5.270;2023-04-01T11:13:11;18.20;90.00
10062;DHT22;5070;52.382;5.270;2023-04-01T11:16:09;18.20;90.00
10062;DHT22;5070;52.382;5.270;2023-04-01T11:22:14;18.20;89.90
10062;DHT22;5070;52.382;5.270;2023-04-01T11:25:20;18.20;89.40
10062;DHT22;5070;52.382;5.270;2023-04-01T11:28:38;18.10;89.60
10062;DHT22;5070;52.382;5.270;2023-04-01T11:31:35;18.20;90.00
10062;DHT22;5070;52.382;5.270;2023-04-01T11:34:14;18.20;90.10
10062;DHT22;5070;52.382;5.270;2023-04-01T11:36:55;18.20;90.10
10062;DHT22;5070;52.382;5.270;2023-04-01T11:39:35;18.20;90.00
10062;DHT22;5070;52.382;5.270;2023-04-01T11:42:30;18.20;89.90
10062;DHT22;5070;52.382;5.270;2023-04-01T11:45:31;18.10;89.50
10062;DHT22;5070;52.382;5.270;2023-04-01T11:48:23;18.10;89.20
10062;DHT22;5070;52.382;5.270;2023-04-01T11:51:10;18.10;89.30
10062;DHT22;5070;52.382;5.270;2023-04-01T11:53:47;18.10;89.20
10062;DHT22;5070;52.382;5.270;2023-04-01T11:56:39;18.10;89.20
10062;DHT22;5070;52.382;5.270;2023-04-01T11:59:54;18.10;89.10
10062;DHT22;5070;52.382;5.270;2023-04-01T12:02:29;18.10;89.30
10062;DHT22;5070;52.382;5.270;2023-04-01T12:05:19;18.10;89.70
10062;DHT22;5070;52.382;5.270;2023-04-01T12:08:00;18.10;89.70
10062;DHT22;5070;52.382;5.270;2023-04-01T12:10:37;18.10;89.70
10062;DHT22;5070;52.382;5.270;2023-04-01T12:13:15;18.10;89.00
10062;DHT22;5070;52.382;5.270;2023-04-01T12:15:57;18.10;88.80
10062;DHT22;5070;52.382;5.270;2023-04-01T12:18:33;18.10;88.90
10062;DHT22;5070;52.382;5.270;2023-04-01T12:21:14;18.10;88.70
10062;DHT22;5070;52.382;5.270;2023-04-01T12:26:56;18.10;88.80
10062;DHT22;5070;52.382;5.270;2023-04-01T12:29:59;18.10;88.90
10062;DHT22;5070;52.382;5.270;2023-04-01T12:32:37;18.10;89.20
10062;DHT22;5070;52.382;5.270;2023-04-01T12:35:17;18.10;89.90
10062;DHT22;5070;52.382;5.270;2023-04-01T12:37:54;18.10;89.70
10062;DHT22;5070;52.382;5.270;2023-04-01T12:40:37;18.10;89.90
10062;DHT22;5070;52.382;5.270;2023-04-01T12:43:40;18.10;89.70
10062;DHT22;5070;52.382;5.270;2023-04-01T12:46:16;18.10;89.60
10062;DHT22;5070;52.382;5.270;2023-04-01T12:49:17;18.10;89.60
10062;DHT22;5070;52.382;5.270;2023-04-01T12:51:53;18.10;89.30
10062;DHT22;5070;52.382;5.270;2023-04-01T12:57:45;18.10;89.10
10062;DHT22;5070;52.382;5.270;2023-04-01T13:00:36;18.10;88.90
10062;DHT22;5070;52.382;5.270;2023-04-01T13:03:19;18.10;89.40
10062;DHT22;5070;52.382;5.270;2023-04-01T13:06:13;18.10;89.10
10062;DHT22;5070;52.382;5.270;2023-04-01T13:08:53;18.10;88.30
10062;DHT22;5070;52.382;5.270;2023-04-01T13:11:30;18.10;87.60
10062;DHT22;5070;52.382;5.270;2023-04-01T13:14:26;18.00;88.30
10062;DHT22;5070;52.382;5.270;2023-04-01T13:17:07;18.10;88.40
10062;DHT22;5070;52.382;5.270;2023-04-01T13:19:44;18.10;89.30
10062;DHT22;5070;52.382;5.270;2023-04-01T13:22:41;18.10;88.50
10062;DHT22;5070;52.382;5.270;2023-04-01T13:25:20;18.10;88.80
10062;DHT22;5070;52.382;5.270;2023-04-01T13:27:58;18.10;88.90
10062;DHT22;5070;52.382;5.270;2023-04-01T13:30:34;18.10;90.00
10062;DHT22;5070;52.382;5.270;2023-04-01T13:33:14;18.10;89.50
10062;DHT22;5070;52.382;5.270;2023-04-01T13:35:50;18.10;90.10
10062;DHT22;5070;52.382;5.270;2023-04-01T13:38:57;18.10;90.60
10062;DHT22;5070;52.382;5.270;2023-04-01T13:41:55;18.20;90.10
10062;DHT22;5070;52.382;5.270;2023-04-01T13:44:30;18.20;90.70
10062;DHT22;5070;52.382;5.270;2023-04-01T13:47:21;18.20;90.80
10062;DHT22;5070;52.382;5.270;2023-04-01T13:50:07;18.20;91.20
10062;DHT22;5070;52.382;5.270;2023-04-01T13:53:03;18.20;91.30
10062;DHT22;5070;52.382;5.270;2023-04-01T13:55:54;18.30;91.50
10062;DHT22;5070;52.382;5.270;2023-04-01T13:58:46;18.30;91.60
10062;DHT22;5070;52.382;5.270;2023-04-01T14:01:23;18.30;91.60
10062;DHT22;5070;52.382;5.270;2023-04-01T14:04:29;18.30;91.60
10062;DHT22;5070;52.382;5.270;2023-04-01T14:07:05;18.30;91.70
10062;DHT22;5070;52.382;5.270;2023-04-01T14:09:49;18.30;91.50
10062;DHT22;5070;52.382;5.270;2023-04-01T14:12:29;18.30;91.00
10062;DHT22;5070;52.382;5.270;2023-04-01T14:15:14;18.40;91.10
10062;DHT22;5070;52.382;5.270;2023-04-01T14:17:57;18.30;91.10
10062;DHT22;5070;52.382;5.270;2023-04-01T14:20:37;18.30;91.20
10062;DHT22;5070;52.382;5.270;2023-04-01T14:23:32;18.30;91.00
10062;DHT22;5070;52.382;5.270;2023-04-01T14:26:12;18.40;91.10
10062;DHT22;5070;52.382;5.270;2023-04-01T14:28:54;18.40;91.10
10062;DHT22;5070;52.382;5.270;2023-04-01T14:31:37;18.40;91.00
10062;DHT22;5070;52.382;5.270;2023-04-01T14:34:19;18.40;91.20
10062;DHT22;5070;52.382;5.270;2023-04-01T14:40:20;18.40;91.00
10062;DHT22;5070;52.382;5.270;2023-04-01T14:43:03;18.40;90.60
10062;DHT22;5070;52.382;5.270;2023-04-01T14:45:59;18.40;91.00
10062;DHT22;5070;52.382;5.270;2023-04-01T14:48:36;18.40;91.20
10062;DHT22;5070;52.382;5.270;2023-04-01T14:51:31;18.40;91.00
10062;DHT22;5070;52.382;5.270;2023-04-01T14:54:05;18.40;91.10
10062;DHT22;5070;52.382;5.270;2023-04-01T14:56:38;18.40;91.20
10062;DHT22;5070;52.382;5.270;2023-04-01T14:59:13;18.40;91.20
10062;DHT22;5070;52.382;5.270;2023-04-01T15:01:50;18.40;91.30
10062;DHT22;5070;52.382;5.270;2023-04-01T15:04:44;18.40;91.00
10062;DHT22;5070;52.382;5.270;2023-04-01T15:10:15;18.40;91.30
10062;DHT22;5070;52.382;5.270;2023-04-01T15:12:56;18.40;91.30
10062;DHT22;5070;52.382;5.270;2023-04-01T15:15:36;18.40;91.20
10062;DHT22;5070;52.382;5.270;2023-04-01T15:18:15;18.40;91.20
10062;DHT22;5070;52.382;5.270;2023-04-01T15:20:55;18.40;91.30
10062;DHT22;5070;52.382;5.270;2023-04-01T15:23:38;18.40;91.40
10062;DHT22;5070;52.382;5.270;2023-04-01T15:29:31;18.40;91.30
10062;DHT22;5070;52.382;5.270;2023-04-01T15:32:08;18.40;91.50
10062;DHT22;5070;52.382;5.270;2023-04-01T15:34:46;18.40;91.50
10062;DHT22;5070;52.382;5.270;2023-04-01T15:37:19;18.40;91.80
10062;DHT22;5070;52.382;5.270;2023-04-01T15:39:56;18.40;92.00
10062;DHT22;5070;52.382;5.270;2023-04-01T15:42:40;18.40;91.90
10062;DHT22;5070;52.382;5.270;2023-04-01T15:45:17;18.50;91.70
10062;DHT22;5070;52.382;5.270;2023-04-01T15:47:57;18.40;91.70
10062;DHT22;5070;52.382;5.270;2023-04-01T15:50:54;18.50;92.00
10062;DHT22;5070;52.382;5.270;2023-04-01T15:53:48;18.50;91.90
10062;DHT22;5070;52.382;5.270;2023-04-01T15:56:45;18.50;91.40
10062;DHT22;5070;52.382;5.270;2023-04-01T15:59:29;18.50;91.70
10062;DHT22;5070;52.382;5.270;2023-04-01T16:02:12;18.50;90.80
10062;DHT22;5070;52.382;5.270;2023-04-01T16:04:52;18.50;91.20
10062;DHT22;5070;52.382;5.270;2023-04-01T16:07:42;18.50;91.30
10062;DHT22;5070;52.382;5.270;2023-04-01T16:10:23;18.50;91.10
10062;DHT22;5070;52.382;5.270;2023-04-01T16:13:08;18.50;91.20
10062;DHT22;5070;52.382;5.270;2023-04-01T16:15:46;18.50;91.30
10062;DHT22;5070;52.382;5.270;2023-04-01T16:21:33;18.50;91.40
10062;DHT22;5070;52.382;5.270;2023-04-01T16:24:13;18.50;91.40
10062;DHT22;5070;52.382;5.270;2023-04-01T16:26:49;18.50;91.40
10062;DHT22;5070;52.382;5.270;2023-04-01T16:29:26;18.50;91.50
10062;DHT22;5070;52.382;5.270;2023-04-01T16:32:02;18.50;91.30
10062;DHT22;5070;52.382;5.270;2023-04-01T16:34:38;18.50;91.20
10062;DHT22;5070;52.382;5.270;2023-04-01T16:37:11;18.50;91.20
10062;DHT22;5070;52.382;5.270;2023-04-01T16:39:45;18.50;91.20
10062;DHT22;5070;52.382;5.270;2023-04-01T16:42:24;18.50;91.20
10062;DHT22;5070;52.382;5.270;2023-04-01T16:44:56;18.50;91.20
10062;DHT22;5070;52.382;5.270;2023-04-01T16:47:29;18.50;91.20
10062;DHT22;5070;52.382;5.270;2023-04-01T16:50:00;18.50;91.20
10062;DHT22;5070;52.382;5.270;2023-04-01T16:52:48;18.50;91.20
10062;DHT22;5070;52.382;5.270;2023-04-01T16:55:35;18.50;91.40
10062;DHT22;5070;52.382;5.270;2023-04-01T16:58:03;18.50;91.70
10062;DHT22;5070;52.382;5.270;2023-04-01T17:00:37;18.50;91.80
10062;DHT22;5070;52.382;5.270;2023-04-01T17:03:12;18.50;92.00
10062;DHT22;5070;52.382;5.270;2023-04-01T17:06:03;18.50;92.10
10062;DHT22;5070;52.382;5.270;2023-04-01T17:08:47;18.50;91.80
10062;DHT22;5070;52.382;5.270;2023-04-01T17:11:19;18.50;92.00
10062;DHT22;5070;52.382;5.270;2023-04-01T17:14:01;18.50;92.00
10062;DHT22;5070;52.382;5.270;2023-04-01T17:19:46;18.50;92.60
10062;DHT22;5070;52.382;5.270;2023-04-01T17:22:27;18.50;93.10
10062;DHT22;5070;52.382;5.270;2023-04-01T17:25:12;18.60;93.30
10062;DHT22;5070;52.382;5.270;2023-04-01T17:27:48;18.60;93.70
10062;DHT22;5070;52.382;5.270;2023-04-01T17:30:27;18.60;93.70
10062;DHT22;5070;52.382;5.270;2023-04-01T17:33:14;18.60;93.50
10062;DHT22;5070;52.382;5.270;2023-04-01T17:35:56;18.60;93.60
10062;DHT22;5070;52.382;5.270;2023-04-01T17:38:40;18.60;94.20
10062;DHT22;5070;52.382;5.270;2023-04-01T17:41:24;18.60;94.40
10062;DHT22;5070;52.382;5.270;2023-04-01T17:43:59;18.60;94.50
10062;DHT22;5070;52.382;5.270;2023-04-01T17:46:36;18.60;94.40
10062;DHT22;5070;52.382;5.270;2023-04-01T17:49:19;18.60;94.60
10062;DHT22;5070;52.382;5.270;2023-04-01T17:51:53;18.60;94.50
10062;DHT22;5070;52.382;5.270;2023-04-01T17:54:28;18.60;94.50
10062;DHT22;5070;52.382;5.270;2023-04-01T17:57:33;18.60;94.20
10062;DHT22;5070;52.382;5.270;2023-04-01T18:00:18;18.60;93.20
10062;DHT22;5070;52.382;5.270;2023-04-01T18:03:00;18.60;94.60
10062;DHT22;5070;52.382;5.270;2023-04-01T18:05:39;18.60;94.60
10062;DHT22;5070;52.382;5.270;2023-04-01T18:08:15;18.60;94.40
10062;DHT22;5070;52.382;5.270;2023-04-01T18:10:54;18.60;94.50
10062;DHT22;5070;52.382;5.270;2023-04-01T18:13:54;18.60;94.40
10062;DHT22;5070;52.382;5.270;2023-04-01T18:16:31;18.60;94.00